sensor_id;sensor_type;location;lat;lon;timestamp;temperature;humidity
44767;DHT22;30487;48.716;9.272;2022-12-29T00:01:36;7.90;99.90
44767;DHT22;30487;48.716;9.272;2022-12-29T00:04:03;7.90;99.90
44767;DHT22;30487;48.716;9.272;2022-12-29T00:06:28;8.00;99.90
44767;DHT22;30487;48.716;9.272;2022-12-29T00:08:54;8.00;99.90
44767;DHT22;30487;48.716;9.272;2022-12-29T00:11:23;8.00;99.90
44767;DHT22;30487;48.716;9.272;2022-12-29T00:13:49;8.00;99.90
44767;DHT22;30487;48.716;9.272;2022-12-29T00:16:35;8.00;99.90
44767;DHT22;30487;48.716;9.272;2022-12-29T00:19:00;8.10;99.90
44767;DHT22;30487;48.716;9.272;2022-12-29T00:21:27;8.10;99.90
44767;DHT22;30487;48.716;9.272;2022-12-29T00:24:14;8.10;99.90
44767;DHT22;30487;48.716;9.272;2022-12-29T00:27:12;8.10;99.90
44767;DHT22;30487;48.716;9.272;2022-12-29T00:29:57;8.20;99.90
44767;DHT22;30487;48.716;9.272;2022-12-29T00:32:41;8.20;99.90
44767;DHT22;30487;48.716;9.272;2022-12-29T00:35:42;8.30;99.90
44767;DHT22;30487;48.716;9.272;2022-12-29T00:38:10;8.30;99.90
44767;DHT22;30487;48.716;9.272;2022-12-29T00:40:56;8.30;99.90
44767;DHT22;30487;48.716;9.272;2022-12-29T00:43:40;8.30;99.90
44767;DHT22;30487;48.716;9.272;2022-12-29T00:46:24;8.30;99.90
44767;DHT22;30487;48.716;9.272;2022-12-29T00:48:49;8.30;99.90
44767;DHT22;30487;48.716;9.272;2022-12-29T00:51:34;8.40;99.90
44767;DHT22;30487;48.716;9.272;2022-12-29T00:53:59;8.30;99.90
44767;DHT22;30487;48.716;9.272;2022-12-29T00:56:25;8.30;99.90
44767;DHT22;30487;48.716;9.272;2022-12-29T00:58:50;8.30;99.90
44767;DHT22;30487;48.716;9.272;2022-12-29T01:01:16;8.30;99.90
44767;DHT22;30487;48.716;9.272;2022-12-29T01:03:41;8.30;99.90
44767;DHT22;30487;48.716;9.272;2022-12-29T01:06:09;8.30;99.90
44767;DHT22;30487;48.716;9.272;2022-12-29T01:08:35;8.30;99.90
44767;DHT22;30487;48.716;9.272;2022-12-29T01:11:02;8.30;99.90
44767;DHT22;30487;48.716;9.272;2022-12-29T01:13:28;8.30;99.90
44767;DHT22;30487;48.716;9.272;2022-12-29T01:15:54;8.30;99.90
44767;DHT22;30487;48.716;9.272;2022-12-29T01:18:19;8.30;99.90
44767;DHT22;30487;48.716;9.272;2022-12-29T01:20:45;8.30;99.90
44767;DHT22;30487;48.716;9.272;2022-12-29T01:23:11;8.30;99.90
44767;DHT22;30487;48.716;9.272;2022-12-29T01:25:36;8.30;99.90
44767;DHT22;30487;48.716;9.272;2022-12-29T01:28:02;8.30;99.90
44767;DHT22;30487;48.716;9.272;2022-12-29T01:30:28;8.30;99.90
44767;DHT22;30487;48.716;9.272;2022-12-29T01:32:53;8.30;99.90
44767;DHT22;30487;48.716;9.272;2022-12-29T01:35:19;8.30;99.90
44767;DHT22;30487;48.716;9.272;2022-12-29T01:37:44;8.40;99.90
44767;DHT22;30487;48.716;9.272;2022-12-29T01:40:10;8.30;99.90
44767;DHT22;30487;48.716;9.272;2022-12-29T01:42:36;8.30;99.90
44767;DHT22;30487;48.716;9.272;2022-12-29T01:45:20;8.40;99.90
44767;DHT22;30487;48.716;9.272;2022-12-29T01:47:57;8.40;99.90
44767;DHT22;30487;48.716;9.272;2022-12-29T01:50:41;8.30;99.90
44767;DHT22;30487;48.716;9.272;2022-12-29T01:53:16;8.40;99.90
44767;DHT22;30487;48.716;9.272;2022-12-29T01:55:49;8.30;99.90
44767;DHT22;30487;48.716;9.272;2022-12-29T01:58:20;8.40;99.90
44767;DHT22;30487;48.716;9.272;2022-12-29T02:00:47;8.40;99.90
44767;DHT22;30487;48.716;9.272;2022-12-29T02:03:13;8.40;99.90
44767;DHT22;30487;48.716;9.272;2022-12-29T02:05:51;8.40;99.90
44767;DHT22;30487;48.716;9.272;2022-12-29T02:08:20;8.40;99.90
44767;DHT22;30487;48.716;9.272;2022-12-29T02:10:47;8.40;99.90
44767;DHT22;30487;48.716;9.272;2022-12-29T02:13:15;8.40;99.90
44767;DHT22;30487;48.716;9.272;2022-12-29T02:18:32;8.50;99.90
44767;DHT22;30487;48.716;9.272;2022-12-29T02:25:00;8.50;99.90
44767;DHT22;30487;48.716;9.272;2022-12-29T02:29:57;8.50;99.90
44767;DHT22;30487;48.716;9.272;2022-12-29T02:35:45;8.60;99.90
44767;DHT22;30487;48.716;9.272;2022-12-29T02:41:19;8.70;99.90
44767;DHT22;30487;48.716;9.272;2022-12-29T02:43:50;8.70;99.90
44767;DHT22;30487;48.716;9.272;2022-12-29T02:46:32;8.70;99.90
44767;DHT22;30487;48.716;9.272;2022-12-29T02:54:10;8.80;99.90
44767;DHT22;30487;48.716;9.272;2022-12-29T02:56:54;8.90;99.90
44767;DHT22;30487;48.716;9.272;2022-12-29T02:59:20;9.00;99.90
44767;DHT22;30487;48.716;9.272;2022-12-29T03:02:00;9.00;99.90
44767;DHT22;30487;48.716;9.272;2022-12-29T03:11:05;9.10;99.90
44767;DHT22;30487;48.716;9.272;2022-12-29T03:13:49;9.20;99.90
44767;DHT22;30487;48.716;9.272;2022-12-29T03:16:46;9.20;99.90
44767;DHT22;30487;48.716;9.272;2022-12-29T03:19:22;9.30;99.90
44767;DHT22;30487;48.716;9.272;2022-12-29T03:21:53;9.30;99.90
44767;DHT22;30487;48.716;9.272;2022-12-29T03:24:45;9.30;99.90
44767;DHT22;30487;48.716;9.272;2022-12-29T03:27:16;9.30;99.90
44767;DHT22;30487;48.716;9.272;2022-12-29T03:29:47;9.30;99.90
44767;DHT22;30487;48.716;9.272;2022-12-29T03:32:19;9.30;99.90
44767;DHT22;30487;48.716;9.272;2022-12-29T03:34:46;9.40;99.90
44767;DHT22;30487;48.716;9.272;2022-12-29T03:37:16;9.40;99.90
44767;DHT22;30487;48.716;9.272;2022-12-29T03:39:42;9.40;99.90
44767;DHT22;30487;48.716;9.272;2022-12-29T03:42:13;9.40;99.90
44767;DHT22;30487;48.716;9.272;2022-12-29T03:44:41;9.40;99.90
44767;DHT22;30487;48.716;9.272;2022-12-29T03:47:09;9.50;99.90
44767;DHT22;30487;48.716;9.272;2022-12-29T03:49:35;9.50;99.90
44767;DHT22;30487;48.716;9.272;2022-12-29T03:52:00;9.50;99.90
44767;DHT22;30487;48.716;9.272;2022-12-29T03:54:26;9.60;99.90
44767;DHT22;30487;48.716;9.272;2022-12-29T03:56:51;9.60;99.90
44767;DHT22;30487;48.716;9.272;2022-12-29T03:59:17;9.70;99.90
44767;DHT22;30487;48.716;9.272;2022-12-29T04:01:43;9.70;99.90
44767;DHT22;30487;48.716;9.272;2022-12-29T04:04:08;9.80;99.90
44767;DHT22;30487;48.716;9.272;2022-12-29T04:06:34;9.80;99.90
44767;DHT22;30487;48.716;9.272;2022-12-29T04:09:00;9.80;99.90
44767;DHT22;30487;48.716;9.272;2022-12-29T04:11:26;9.80;99.90
44767;DHT22;30487;48.716;9.272;2022-12-29T04:13:51;9.70;99.90
44767;DHT22;30487;48.716;9.272;2022-12-29T04:16:17;9.70;99.90
44767;DHT22;30487;48.716;9.272;2022-12-29T04:18:42;9.70;99.90
44767;DHT22;30487;48.716;9.272;2022-12-29T04:21:08;9.70;99.90
44767;DHT22;30487;48.716;9.272;2022-12-29T04:23:36;9.70;99.90
44767;DHT22;30487;48.716;9.272;2022-12-29T04:26:02;9.70;99.90
44767;DHT22;30487;48.716;9.272;2022-12-29T04:28:28;9.70;99.90
44767;DHT22;30487;48.716;9.272;2022-12-29T04:30:54;9.70;99.90
44767;DHT22;30487;48.716;9.272;2022-12-29T04:33:20;9.80;99.90
44767;DHT22;30487;48.716;9.272;2022-12-29T04:35:46;9.90;99.90
44767;DHT22;30487;48.716;9.272;2022-12-29T04:38:12;9.90;99.90
44767;DHT22;30487;48.716;9.272;2022-12-29T04:40:39;9.90;99.90
44767;DHT22;30487;48.716;9.272;2022-12-29T04:43:06;9.90;99.90
44767;DHT22;30487;48.716;9.272;2022-12-29T04:45:32;9.90;99.90
44767;DHT22;30487;48.716;9.272;2022-12-29T04:47:57;9.90;99.90
44767;DHT22;30487;48.716;9.272;2022-12-29T04:50:23;9.90;99.90
44767;DHT22;30487;48.716;9.272;2022-12-29T04:52:48;9.80;99.90
44767;DHT22;30487;48.716;9.272;2022-12-29T04:55:14;9.80;99.90
44767;DHT22;30487;48.716;9.272;2022-12-29T04:57:40;9.80;99.90
44767;DHT22;30487;48.716;9.272;2022-12-29T05:00:06;9.80;99.90
44767;DHT22;30487;48.716;9.272;2022-12-29T05:02:32;9.80;99.90
44767;DHT22;30487;48.716;9.272;2022-12-29T05:04:57;9.80;99.90
44767;DHT22;30487;48.716;9.272;2022-12-29T05:07:23;9.70;99.90
44767;DHT22;30487;48.716;9.272;2022-12-29T05:09:50;9.70;99.90
44767;DHT22;30487;48.716;9.272;2022-12-29T05:12:15;9.80;99.90
44767;DHT22;30487;48.716;9.272;2022-12-29T05:14:41;9.80;99.90
44767;DHT22;30487;48.716;9.272;2022-12-29T05:17:07;9.80;99.90
44767;DHT22;30487;48.716;9.272;2022-12-29T05:19:33;9.80;99.90
44767;DHT22;30487;48.716;9.272;2022-12-29T05:21:58;9.80;99.90
44767;DHT22;30487;48.716;9.272;2022-12-29T05:24:24;9.80;99.90
44767;DHT22;30487;48.716;9.272;2022-12-29T05:26:49;9.80;99.90
44767;DHT22;30487;48.716;9.272;2022-12-29T05:29:15;9.70;99.90
44767;DHT22;30487;48.716;9.272;2022-12-29T05:31:40;9.70;99.90
44767;DHT22;30487;48.716;9.272;2022-12-29T05:34:06;9.60;99.90
44767;DHT22;30487;48.716;9.272;2022-12-29T05:36:32;9.60;99.90
44767;DHT22;30487;48.716;9.272;2022-12-29T05:38:57;9.60;99.90
44767;DHT22;30487;48.716;9.272;2022-12-29T05:41:23;9.60;99.90
44767;DHT22;30487;48.716;9.272;2022-12-29T05:43:48;9.60;99.90
44767;DHT22;30487;48.716;9.272;2022-12-29T05:46:14;9.60;99.90
44767;DHT22;30487;48.716;9.272;2022-12-29T05:48:39;9.60;99.90
44767;DHT22;30487;48.716;9.272;2022-12-29T05:51:05;9.50;99.90
44767;DHT22;30487;48.716;9.272;2022-12-29T05:53:31;9.50;99.90
44767;DHT22;30487;48.716;9.272;2022-12-29T05:55:56;9.40;99.90
44767;DHT22;30487;48.716;9.272;2022-12-29T05:58:22;9.40;99.90
44767;DHT22;30487;48.716;9.272;2022-12-29T06:00:47;9.30;99.90
44767;DHT22;30487;48.716;9.272;2022-12-29T06:03:13;9.30;99.90
44767;DHT22;30487;48.716;9.272;2022-12-29T06:05:38;9.30;99.90
44767;DHT22;30487;48.716;9.272;2022-12-29T06:08:04;9.20;99.90
44767;DHT22;30487;48.716;9.272;2022-12-29T06:10:30;9.20;99.90
44767;DHT22;30487;48.716;9.272;2022-12-29T06:12:55;9.20;99.90
44767;DHT22;30487;48.716;9.272;2022-12-29T06:15:21;9.20;99.90
44767;DHT22;30487;48.716;9.272;2022-12-29T06:17:46;9.20;99.90
44767;DHT22;30487;48.716;9.272;2022-12-29T06:20:12;9.20;99.90
44767;DHT22;30487;48.716;9.272;2022-12-29T06:22:38;9.20;99.90
44767;DHT22;30487;48.716;9.272;2022-12-29T06:25:04;9.30;99.90
44767;DHT22;30487;48.716;9.272;2022-12-29T06:27:31;9.20;99.90
44767;DHT22;30487;48.716;9.272;2022-12-29T06:29:56;9.30;99.90
44767;DHT22;30487;48.716;9.272;2022-12-29T06:32:22;9.30;99.90
44767;DHT22;30487;48.716;9.272;2022-12-29T06:34:48;9.30;99.90
44767;DHT22;30487;48.716;9.272;2022-12-29T06:37:14;9.30;99.90
44767;DHT22;30487;48.716;9.272;2022-12-29T06:39:40;9.30;99.90
44767;DHT22;30487;48.716;9.272;2022-12-29T06:42:05;9.30;99.90
44767;DHT22;30487;48.716;9.272;2022-12-29T06:44:31;9.30;99.90
44767;DHT22;30487;48.716;9.272;2022-12-29T06:46:56;9.30;99.90
44767;DHT22;30487;48.716;9.272;2022-12-29T06:49:22;9.30;99.90
44767;DHT22;30487;48.716;9.272;2022-12-29T06:51:48;9.30;99.90
44767;DHT22;30487;48.716;9.272;2022-12-29T06:54:14;9.40;99.90
44767;DHT22;30487;48.716;9.272;2022-12-29T06:56:39;9.30;99.90
44767;DHT22;30487;48.716;9.272;2022-12-29T06:59:05;9.30;99.90
44767;DHT22;30487;48.716;9.272;2022-12-29T07:01:31;9.40;99.90
44767;DHT22;30487;48.716;9.272;2022-12-29T07:03:56;9.40;99.90
44767;DHT22;30487;48.716;9.272;2022-12-29T07:06:23;9.40;99.90
44767;DHT22;30487;48.716;9.272;2022-12-29T07:08:48;9.40;99.90
44767;DHT22;30487;48.716;9.272;2022-12-29T07:11:14;9.40;99.90
44767;DHT22;30487;48.716;9.272;2022-12-29T07:13:40;9.40;99.90
44767;DHT22;30487;48.716;9.272;2022-12-29T07:16:07;9.40;99.90
44767;DHT22;30487;48.716;9.272;2022-12-29T07:18:33;9.40;99.90
44767;DHT22;30487;48.716;9.272;2022-12-29T07:20:58;9.50;99.90
44767;DHT22;30487;48.716;9.272;2022-12-29T07:23:24;9.60;99.90
44767;DHT22;30487;48.716;9.272;2022-12-29T07:25:50;9.60;99.90
44767;DHT22;30487;48.716;9.272;2022-12-29T07:28:15;9.70;99.90
44767;DHT22;30487;48.716;9.272;2022-12-29T07:30:41;9.70;99.90
44767;DHT22;30487;48.716;9.272;2022-12-29T07:33:07;9.70;99.90
44767;DHT22;30487;48.716;9.272;2022-12-29T07:35:34;9.70;99.90
44767;DHT22;30487;48.716;9.272;2022-12-29T07:37:59;9.70;99.90
44767;DHT22;30487;48.716;9.272;2022-12-29T07:40:25;9.70;99.90
44767;DHT22;30487;48.716;9.272;2022-12-29T07:42:51;9.80;99.90
44767;DHT22;30487;48.716;9.272;2022-12-29T07:45:16;9.80;99.90
44767;DHT22;30487;48.716;9.272;2022-12-29T07:47:42;9.80;99.90
44767;DHT22;30487;48.716;9.272;2022-12-29T07:50:07;9.80;99.90
44767;DHT22;30487;48.716;9.272;2022-12-29T07:52:33;9.80;99.90
44767;DHT22;30487;48.716;9.272;2022-12-29T07:54:58;9.90;99.90
44767;DHT22;30487;48.716;9.272;2022-12-29T07:57:24;9.90;99.90
44767;DHT22;30487;48.716;9.272;2022-12-29T07:59:49;9.90;99.90
44767;DHT22;30487;48.716;9.272;2022-12-29T08:02:15;9.90;99.90
44767;DHT22;30487;48.716;9.272;2022-12-29T08:04:40;9.90;99.90
44767;DHT22;30487;48.716;9.272;2022-12-29T08:07:06;10.00;99.90
44767;DHT22;30487;48.716;9.272;2022-12-29T08:09:32;10.00;99.90
44767;DHT22;30487;48.716;9.272;2022-12-29T08:11:57;9.90;99.90
44767;DHT22;30487;48.716;9.272;2022-12-29T08:14:23;10.00;99.90
44767;DHT22;30487;48.716;9.272;2022-12-29T08:16:49;10.10;99.90
44767;DHT22;30487;48.716;9.272;2022-12-29T08:19:14;10.10;99.90
44767;DHT22;30487;48.716;9.272;2022-12-29T08:21:40;10.20;99.90
44767;DHT22;30487;48.716;9.272;2022-12-29T08:24:07;10.30;99.90
44767;DHT22;30487;48.716;9.272;2022-12-29T08:26:33;10.30;99.90
44767;DHT22;30487;48.716;9.272;2022-12-29T08:28:59;10.40;99.90
44767;DHT22;30487;48.716;9.272;2022-12-29T08:31:24;10.30;99.90
44767;DHT22;30487;48.716;9.272;2022-12-29T08:33:50;10.40;99.90
44767;DHT22;30487;48.716;9.272;2022-12-29T08:36:16;10.40;99.90
44767;DHT22;30487;48.716;9.272;2022-12-29T08:38:42;10.40;99.90
44767;DHT22;30487;48.716;9.272;2022-12-29T08:41:08;10.50;99.90
44767;DHT22;30487;48.716;9.272;2022-12-29T08:43:33;10.50;99.90
44767;DHT22;30487;48.716;9.272;2022-12-29T08:45:59;10.50;99.90
44767;DHT22;30487;48.716;9.272;2022-12-29T08:48:25;10.60;99.90
44767;DHT22;30487;48.716;9.272;2022-12-29T08:50:51;10.70;99.90
44767;DHT22;30487;48.716;9.272;2022-12-29T08:53:17;10.70;99.90
44767;DHT22;30487;48.716;9.272;2022-12-29T08:55:45;10.80;99.90
44767;DHT22;30487;48.716;9.272;2022-12-29T08:58:11;10.90;99.90
44767;DHT22;30487;48.716;9.272;2022-12-29T09:00:40;10.90;99.90
44767;DHT22;30487;48.716;9.272;2022-12-29T09:03:06;11.00;99.90
44767;DHT22;30487;48.716;9.272;2022-12-29T09:05:31;11.00;99.90
44767;DHT22;30487;48.716;9.272;2022-12-29T09:07:57;11.00;99.90
44767;DHT22;30487;48.716;9.272;2022-12-29T09:10:23;11.00;99.90
44767;DHT22;30487;48.716;9.272;2022-12-29T09:12:48;11.10;99.90
44767;DHT22;30487;48.716;9.272;2022-12-29T09:15:14;11.00;99.90
44767;DHT22;30487;48.716;9.272;2022-12-29T09:17:41;11.00;99.90
44767;DHT22;30487;48.716;9.272;2022-12-29T09:20:08;11.00;99.90
44767;DHT22;30487;48.716;9.272;2022-12-29T09:22:34;11.00;99.90
44767;DHT22;30487;48.716;9.272;2022-12-29T09:25:00;11.00;99.90
44767;DHT22;30487;48.716;9.272;2022-12-29T09:27:26;11.00;99.90
44767;DHT22;30487;48.716;9.272;2022-12-29T09:29:51;11.10;99.90
44767;DHT22;30487;48.716;9.272;2022-12-29T09:32:17;11.10;99.90
44767;DHT22;30487;48.716;9.272;2022-12-29T09:34:42;11.00;99.90
44767;DHT22;30487;48.716;9.272;2022-12-29T09:37:08;11.10;99.90
44767;DHT22;30487;48.716;9.272;2022-12-29T09:39:34;11.10;99.90
44767;DHT22;30487;48.716;9.272;2022-12-29T09:47:31;11.10;99.90
44767;DHT22;30487;48.716;9.272;2022-12-29T09:50:03;11.20;99.90
44767;DHT22;30487;48.716;9.272;2022-12-29T09:52:58;11.20;99.90
44767;DHT22;30487;48.716;9.272;2022-12-29T09:55:28;11.30;99.90
44767;DHT22;30487;48.716;9.272;2022-12-29T09:58:02;11.30;99.90
44767;DHT22;30487;48.716;9.272;2022-12-29T10:01:10;11.40;99.90
44767;DHT22;30487;48.716;9.272;2022-12-29T10:03:47;11.40;99.90
44767;DHT22;30487;48.716;9.272;2022-12-29T10:19:45;11.60;99.90
44767;DHT22;30487;48.716;9.272;2022-12-29T10:22:25;11.60;99.90
44767;DHT22;30487;48.716;9.272;2022-12-29T10:24:55;11.50;99.90
44767;DHT22;30487;48.716;9.272;2022-12-29T10:27:22;11.50;99.90
44767;DHT22;30487;48.716;9.272;2022-12-29T10:29:53;11.50;99.90
44767;DHT22;30487;48.716;9.272;2022-12-29T10:32:30;11.50;99.90
44767;DHT22;30487;48.716;9.272;2022-12-29T10:35:05;11.60;99.90
44767;DHT22;30487;48.716;9.272;2022-12-29T10:42:43;11.70;99.90
44767;DHT22;30487;48.716;9.272;2022-12-29T10:45:14;11.80;99.90
44767;DHT22;30487;48.716;9.272;2022-12-29T10:48:18;11.90;99.90
44767;DHT22;30487;48.716;9.272;2022-12-29T10:50:33;11.90;99.90
44767;DHT22;30487;48.716;9.272;2022-12-29T10:53:02;12.30;99.90
44767;DHT22;30487;48.716;9.272;2022-12-29T10:55:32;13.20;99.90
44767;DHT22;30487;48.716;9.272;2022-12-29T10:58:02;14.00;99.90
44767;DHT22;30487;48.716;9.272;2022-12-29T11:00:30;14.10;99.90
44767;DHT22;30487;48.716;9.272;2022-12-29T11:03:27;13.80;99.90
44767;DHT22;30487;48.716;9.272;2022-12-29T11:06:08;13.60;99.90
44767;DHT22;30487;48.716;9.272;2022-12-29T11:08:39;13.30;99.90
44767;DHT22;30487;48.716;9.272;2022-12-29T11:11:09;13.00;99.90
44767;DHT22;30487;48.716;9.272;2022-12-29T11:13:48;12.80;99.90
44767;DHT22;30487;48.716;9.272;2022-12-29T11:16:14;12.70;99.90
44767;DHT22;30487;48.716;9.272;2022-12-29T11:18:40;12.60;99.90
44767;DHT22;30487;48.716;9.272;2022-12-29T11:21:35;12.50;99.90
44767;DHT22;30487;48.716;9.272;2022-12-29T11:24:28;12.50;99.90
44767;DHT22;30487;48.716;9.272;2022-12-29T11:29:41;12.60;99.90
44767;DHT22;30487;48.716;9.272;2022-12-29T11:32:25;12.60;99.90
44767;DHT22;30487;48.716;9.272;2022-12-29T11:34:51;12.50;99.90
44767;DHT22;30487;48.716;9.272;2022-12-29T11:37:38;12.40;99.90
44767;DHT22;30487;48.716;9.272;2022-12-29T11:40:05;12.30;99.90
44767;DHT22;30487;48.716;9.272;2022-12-29T11:42:39;12.20;99.90
44767;DHT22;30487;48.716;9.272;2022-12-29T11:47:41;12.10;99.90
44767;DHT22;30487;48.716;9.272;2022-12-29T11:50:15;12.10;99.90
44767;DHT22;30487;48.716;9.272;2022-12-29T11:52:42;12.30;99.90
44767;DHT22;30487;48.716;9.272;2022-12-29T11:55:17;12.50;99.90
44767;DHT22;30487;48.716;9.272;2022-12-29T11:57:44;12.60;99.90
44767;DHT22;30487;48.716;9.272;2022-12-29T12:00:18;12.70;99.90
44767;DHT22;30487;48.716;9.272;2022-12-29T12:03:01;12.70;99.90
44767;DHT22;30487;48.716;9.272;2022-12-29T12:05:35;12.60;99.90
44767;DHT22;30487;48.716;9.272;2022-12-29T12:08:38;12.40;99.90
44767;DHT22;30487;48.716;9.272;2022-12-29T12:11:07;12.30;99.90
44767;DHT22;30487;48.716;9.272;2022-12-29T12:14:00;12.20;99.90
44767;DHT22;30487;48.716;9.272;2022-12-29T12:16:37;12.10;99.90
44767;DHT22;30487;48.716;9.272;2022-12-29T12:19:16;12.00;99.90
44767;DHT22;30487;48.716;9.272;2022-12-29T12:21:50;12.00;99.90
44767;DHT22;30487;48.716;9.272;2022-12-29T12:24:25;12.00;99.90
44767;DHT22;30487;48.716;9.272;2022-12-29T12:27:24;11.90;99.90
44767;DHT22;30487;48.716;9.272;2022-12-29T12:30:12;12.00;99.90
44767;DHT22;30487;48.716;9.272;2022-12-29T12:44:24;12.50;99.90
44767;DHT22;30487;48.716;9.272;2022-12-29T12:47:18;12.50;99.90
44767;DHT22;30487;48.716;9.272;2022-12-29T12:50:26;12.40;99.90
44767;DHT22;30487;48.716;9.272;2022-12-29T13:01:03;12.10;99.90
44767;DHT22;30487;48.716;9.272;2022-12-29T13:06:32;12.40;99.90
44767;DHT22;30487;48.716;9.272;2022-12-29T13:09:48;12.50;99.90
44767;DHT22;30487;48.716;9.272;2022-12-29T13:15:40;12.40;99.90
44767;DHT22;30487;48.716;9.272;2022-12-29T13:20:55;13.40;99.90
44767;DHT22;30487;48.716;9.272;2022-12-29T13:24:33;13.60;99.90
44767;DHT22;30487;48.716;9.272;2022-12-29T13:26:32;13.90;99.90
44767;DHT22;30487;48.716;9.272;2022-12-29T13:37:15;14.30;99.90
44767;DHT22;30487;48.716;9.272;2022-12-29T13:39:55;13.90;99.90
44767;DHT22;30487;48.716;9.272;2022-12-29T13:42:23;13.50;99.90
44767;DHT22;30487;48.716;9.272;2022-12-29T13:45:10;13.10;99.90
44767;DHT22;30487;48.716;9.272;2022-12-29T13:47:56;12.90;99.90
44767;DHT22;30487;48.716;9.272;2022-12-29T13:50:25;12.80;99.90
44767;DHT22;30487;48.716;9.272;2022-12-29T14:01:17;13.00;99.90
44767;DHT22;30487;48.716;9.272;2022-12-29T14:03:55;12.90;99.90
44767;DHT22;30487;48.716;9.272;2022-12-29T14:06:22;12.90;99.90
44767;DHT22;30487;48.716;9.272;2022-12-29T14:08:51;12.80;99.90
44767;DHT22;30487;48.716;9.272;2022-12-29T14:11:21;12.70;99.90
44767;DHT22;30487;48.716;9.272;2022-12-29T14:13:47;12.70;99.90
44767;DHT22;30487;48.716;9.272;2022-12-29T14:16:32;12.90;99.90
44767;DHT22;30487;48.716;9.272;2022-12-29T14:19:18;12.90;99.90
44767;DHT22;30487;48.716;9.272;2022-12-29T14:21:53;13.20;99.90
44767;DHT22;30487;48.716;9.272;2022-12-29T14:34:47;13.40;99.90
44767;DHT22;30487;48.716;9.272;2022-12-29T14:40:14;13.20;99.90
44767;DHT22;30487;48.716;9.272;2022-12-29T14:42:43;13.10;99.90
44767;DHT22;30487;48.716;9.272;2022-12-29T14:47:40;12.80;99.90
44767;DHT22;30487;48.716;9.272;2022-12-29T14:52:53;12.50;99.90
44767;DHT22;30487;48.716;9.272;2022-12-29T14:58:17;12.20;99.90
44767;DHT22;30487;48.716;9.272;2022-12-29T15:00:44;12.10;99.90
44767;DHT22;30487;48.716;9.272;2022-12-29T15:03:18;12.00;99.90
44767;DHT22;30487;48.716;9.272;2022-12-29T15:05:56;12.00;99.90
44767;DHT22;30487;48.716;9.272;2022-12-29T15:08:25;11.80;99.90
44767;DHT22;30487;48.716;9.272;2022-12-29T15:11:06;11.80;99.90
44767;DHT22;30487;48.716;9.272;2022-12-29T15:13:41;11.70;99.90
44767;DHT22;30487;48.716;9.272;2022-12-29T15:16:25;11.70;99.90
44767;DHT22;30487;48.716;9.272;2022-12-29T15:18:52;11.60;99.90
44767;DHT22;30487;48.716;9.272;2022-12-29T15:23:47;11.50;99.90
44767;DHT22;30487;48.716;9.272;2022-12-29T15:26:13;11.50;99.90
44767;DHT22;30487;48.716;9.272;2022-12-29T15:28:46;11.50;99.90
44767;DHT22;30487;48.716;9.272;2022-12-29T15:31:21;11.40;99.90
44767;DHT22;30487;48.716;9.272;2022-12-29T15:33:51;11.40;99.90
44767;DHT22;30487;48.716;9.272;2022-12-29T15:36:28;11.40;99.90
44767;DHT22;30487;48.716;9.272;2022-12-29T15:38:54;11.30;99.90
44767;DHT22;30487;48.716;9.272;2022-12-29T15:46:33;11.30;99.90
44767;DHT22;30487;48.716;9.272;2022-12-29T15:48:58;11.30;99.90
44767;DHT22;30487;48.716;9.272;2022-12-29T15:51:34;11.30;99.90
44767;DHT22;30487;48.716;9.272;2022-12-29T15:54:01;11.20;99.90
44767;DHT22;30487;48.716;9.272;2022-12-29T15:56:31;11.20;99.90
44767;DHT22;30487;48.716;9.272;2022-12-29T15:58:59;11.20;99.90
44767;DHT22;30487;48.716;9.272;2022-12-29T16:01:35;11.20;99.90
44767;DHT22;30487;48.716;9.272;2022-12-29T16:04:04;11.20;99.90
44767;DHT22;30487;48.716;9.272;2022-12-29T16:06:54;11.20;99.90
44767;DHT22;30487;48.716;9.272;2022-12-29T16:11:57;11.20;99.90
44767;DHT22;30487;48.716;9.272;2022-12-29T16:14:33;11.20;99.90
44767;DHT22;30487;48.716;9.272;2022-12-29T16:17:01;11.20;99.90
44767;DHT22;30487;48.716;9.272;2022-12-29T16:19:34;11.20;99.90
44767;DHT22;30487;48.716;9.272;2022-12-29T16:22:02;11.30;99.90
44767;DHT22;30487;48.716;9.272;2022-12-29T16:24:32;11.30;99.90
44767;DHT22;30487;48.716;9.272;2022-12-29T16:27:15;11.20;99.90
44767;DHT22;30487;48.716;9.272;2022-12-29T16:29:44;11.20;99.90
44767;DHT22;30487;48.716;9.272;2022-12-29T16:34:53;11.10;99.90
44767;DHT22;30487;48.716;9.272;2022-12-29T16:37:34;11.10;99.90
44767;DHT22;30487;48.716;9.272;2022-12-29T16:42:46;10.90;99.90
44767;DHT22;30487;48.716;9.272;2022-12-29T16:47:48;10.90;99.90
44767;DHT22;30487;48.716;9.272;2022-12-29T16:50:19;10.80;99.90
44767;DHT22;30487;48.716;9.272;2022-12-29T16:52:49;10.70;99.90
44767;DHT22;30487;48.716;9.272;2022-12-29T16:55:18;10.60;99.90
44767;DHT22;30487;48.716;9.272;2022-12-29T16:57:46;10.60;99.90
44767;DHT22;30487;48.716;9.272;2022-12-29T17:00:24;10.60;99.90
44767;DHT22;30487;48.716;9.272;2022-12-29T17:02:52;10.50;99.90
44767;DHT22;30487;48.716;9.272;2022-12-29T17:05:19;10.50;99.90
44767;DHT22;30487;48.716;9.272;2022-12-29T17:07:45;10.50;99.90
44767;DHT22;30487;48.716;9.272;2022-12-29T17:10:12;10.50;99.90
44767;DHT22;30487;48.716;9.272;2022-12-29T17:12:40;10.50;99.90
44767;DHT22;30487;48.716;9.272;2022-12-29T17:22:35;10.30;99.90
44767;DHT22;30487;48.716;9.272;2022-12-29T17:25:01;10.20;99.90
44767;DHT22;30487;48.716;9.272;2022-12-29T17:27:37;10.20;99.90
44767;DHT22;30487;48.716;9.272;2022-12-29T17:30:25;10.20;99.90
44767;DHT22;30487;48.716;9.272;2022-12-29T17:32:52;10.10;99.90
44767;DHT22;30487;48.716;9.272;2022-12-29T17:35:21;10.10;99.90
44767;DHT22;30487;48.716;9.272;2022-12-29T17:37:47;10.10;99.90
44767;DHT22;30487;48.716;9.272;2022-12-29T17:40:26;10.00;99.90
44767;DHT22;30487;48.716;9.272;2022-12-29T17:42:54;10.10;99.90
44767;DHT22;30487;48.716;9.272;2022-12-29T17:45:31;10.00;99.90
44767;DHT22;30487;48.716;9.272;2022-12-29T17:47:58;10.00;99.90
44767;DHT22;30487;48.716;9.272;2022-12-29T17:50:29;9.90;99.90
44767;DHT22;30487;48.716;9.272;2022-12-29T17:53:24;9.90;99.90
44767;DHT22;30487;48.716;9.272;2022-12-29T17:55:51;9.90;99.90
44767;DHT22;30487;48.716;9.272;2022-12-29T17:58:22;9.90;99.90
44767;DHT22;30487;48.716;9.272;2022-12-29T18:00:51;9.80;99.90
44767;DHT22;30487;48.716;9.272;2022-12-29T18:03:20;9.80;99.90
44767;DHT22;30487;48.716;9.272;2022-12-29T18:05:47;9.80;99.90
44767;DHT22;30487;48.716;9.272;2022-12-29T18:08:14;9.70;99.90
44767;DHT22;30487;48.716;9.272;2022-12-29T18:10:39;9.70;99.90
44767;DHT22;30487;48.716;9.272;2022-12-29T18:13:05;9.60;99.90
44767;DHT22;30487;48.716;9.272;2022-12-29T18:15:33;9.70;99.90
44767;DHT22;30487;48.716;9.272;2022-12-29T18:18:11;9.70;99.90
44767;DHT22;30487;48.716;9.272;2022-12-29T18:20:38;9.70;99.90
44767;DHT22;30487;48.716;9.272;2022-12-29T18:23:04;9.70;99.90
44767;DHT22;30487;48.716;9.272;2022-12-29T18:25:48;9.70;99.90
44767;DHT22;30487;48.716;9.272;2022-12-29T18:28:14;9.80;99.90
44767;DHT22;30487;48.716;9.272;2022-12-29T18:30:40;9.80;99.90